Kezdőlap
METAR-TAF:

METAR-TAF

Repülőterek :

Blanding, Utah, Amerikai Egyesült Államok

földrajzi szélesség: 37-35-00N, földrajzi hosszúság: 109-29-00W, magasság: 1789 m

Jelenlegi meteorológiai megfigyelések

A jelentés 25 perccel ezelõtt készült, 23:35 UTC
Nyugat-délnyugati szél 14 kt
Hőmérséklet 22°C
Páratartalom 11%
Légköri nyomás 1016 hPa
Látótávolság: 14.5 km
Borult 17000 lábon

METAR: KBDG 182335Z AUTO 25014KT 9SM OVC170 22/M10 A3000 RMK AO2 T02181103

Idő: 18:00 (00:00 UTC)


TAF: hiányzik

Meteorológiai megfigyelések és előrejelzések több, mint 4000 repülőtéren (METAR és TAF jelentéseket).

A térképen piros és sárga pontok jelzik az elérhető meteorológiai állomásokat.

Mozgassa az egeret a pont fölött, hogy megjelenjen az állomás neve.

Azután kattintson az időjárási megfigyelések és előrejelzések megtekintéséhez.

A térkép megváltoztatása: kattintson a fekete keresztel jelölt zöld gombra ráközelítéshez, a vonallal jelölt zöld gombra távolításhoz, vagy a zöld nyilakra a szomszédos térképek eléréséhez.


METAR-TAF: